createdAt,value
2018-07-30T00:00:37.076Z,65.14
2018-07-30T00:01:44.249Z,65.65
2018-07-30T00:02:50.441Z,65.51
2018-07-30T00:03:55.552Z,64.86
2018-07-30T00:05:01.337Z,65.23
2018-07-30T00:06:06.463Z,65.26
2018-07-30T00:07:11.412Z,65.52
2018-07-30T00:08:16.292Z,65.65
2018-07-30T00:09:21.476Z,65.32
2018-07-30T00:10:26.339Z,64.96
2018-07-30T00:11:31.206Z,64.54
2018-07-30T00:12:36.811Z,64.69
2018-07-30T00:13:42.168Z,65.31
2018-07-30T00:14:47.032Z,64.75
2018-07-30T00:15:53.223Z,65.09
2018-07-30T00:16:58.891Z,65.45
2018-07-30T00:18:05.710Z,65.04
2018-07-30T00:19:11.204Z,65.39
2018-07-30T00:20:16.087Z,65.19
2018-07-30T00:21:21.023Z,64.57
2018-07-30T00:22:26.266Z,65.34
2018-07-30T00:23:31.146Z,65.03
2018-07-30T00:24:36.322Z,64.14
2018-07-30T00:25:41.235Z,65.06
2018-07-30T00:26:46.160Z,65.11
2018-07-30T00:27:51.081Z,64.58
2018-07-30T00:28:56.760Z,65.01
2018-07-30T00:30:01.528Z,64.64
2018-07-30T00:31:06.290Z,64.42
2018-07-30T00:32:11.105Z,65.12
2018-07-30T00:33:15.957Z,65.25
2018-07-30T00:34:20.770Z,65.54
2018-07-30T00:35:25.876Z,66.06
2018-07-30T00:36:30.717Z,65.44
2018-07-30T00:37:35.486Z,66.20
2018-07-30T00:38:40.244Z,65.72
2018-07-30T00:39:46.008Z,66.66
2018-07-30T00:40:50.845Z,66.31
2018-07-30T00:41:55.877Z,66.97
2018-07-30T00:43:01.676Z,67.25
2018-07-30T00:44:06.603Z,66.95
2018-07-30T00:45:12.490Z,66.93
2018-07-30T00:46:18.780Z,67.19
2018-07-30T00:47:24.521Z,67.99
2018-07-30T00:48:30.483Z,68.19
2018-07-30T00:49:35.270Z,68.16
2018-07-30T00:50:41.168Z,68.58
2018-07-30T00:51:45.986Z,67.38
2018-07-30T00:52:50.804Z,67.55
2018-07-30T00:53:55.592Z,67.59
2018-07-30T00:55:00.675Z,68.36
2018-07-30T00:56:05.610Z,68.11
2018-07-30T00:57:12.266Z,68.26
2018-07-30T00:58:17.176Z,67.82
2018-07-30T00:59:23.078Z,68.21
2018-07-30T01:00:27.922Z,68.40
2018-07-30T01:01:33.537Z,68.03
2018-07-30T01:02:38.375Z,68.57
2018-07-30T01:03:43.358Z,69.10
2018-07-30T01:04:49.426Z,69.28
2018-07-30T01:05:54.916Z,68.41
2018-07-30T01:06:59.749Z,68.51
2018-07-30T01:08:04.889Z,68.32
2018-07-30T01:09:11.678Z,68.50
2018-07-30T01:10:16.742Z,68.29
2018-07-30T01:11:26.112Z,68.37
2018-07-30T01:12:30.980Z,68.22
2018-07-30T01:13:35.840Z,68.50
2018-07-30T01:14:41.184Z,68.81
2018-07-30T01:15:47.873Z,68.74
2018-07-30T01:16:52.711Z,69.09
2018-07-30T01:17:57.606Z,68.79
2018-07-30T01:19:03.053Z,68.92
2018-07-30T01:20:07.932Z,69.76
2018-07-30T01:21:13.081Z,69.29
2018-07-30T01:22:17.950Z,68.67
2018-07-30T01:23:22.819Z,69.09
2018-07-30T01:24:27.679Z,69.18
2018-07-30T01:25:32.468Z,68.76
2018-07-30T01:26:37.312Z,68.81
2018-07-30T01:27:42.628Z,68.07
2018-07-30T01:28:47.552Z,68.30
2018-07-30T01:29:52.424Z,68.39
2018-07-30T01:30:58.318Z,68.68
2018-07-30T01:32:03.181Z,68.50
2018-07-30T01:33:07.958Z,68.72
2018-07-30T01:34:13.072Z,70.12
2018-07-30T01:35:17.910Z,69.89
2018-07-30T01:36:22.792Z,70.27
2018-07-30T01:37:27.829Z,69.38
2018-07-30T01:38:32.709Z,69.33
2018-07-30T01:39:37.685Z,69.90
2018-07-30T01:40:43.758Z,69.62
2018-07-30T01:41:59.805Z,69.66
2018-07-30T01:43:04.688Z,69.14
2018-07-30T01:44:09.504Z,70.09
2018-07-30T01:45:14.375Z,70.21
2018-07-30T01:46:19.231Z,69.81
2018-07-30T01:47:24.371Z,70.33
2018-07-30T01:48:29.100Z,69.28
2018-07-30T01:49:33.782Z,69.28
2018-07-30T01:50:38.571Z,69.88
2018-07-30T01:51:44.362Z,69.17
2018-07-30T01:52:49.160Z,69.43
2018-07-30T01:53:53.868Z,69.44
2018-07-30T01:54:58.620Z,69.25
2018-07-30T01:56:03.370Z,70.04
2018-07-30T01:57:08.188Z,69.86
2018-07-30T01:58:12.932Z,69.60
2018-07-30T01:59:17.636Z,69.57
2018-07-30T02:00:22.728Z,70.00
2018-07-30T02:01:27.471Z,70.55
2018-07-30T02:02:32.296Z,70.61
2018-07-30T02:03:37.061Z,70.37
2018-07-30T02:04:42.479Z,70.44
2018-07-30T02:05:47.362Z,70.44
2018-07-30T02:06:52.517Z,70.67
2018-07-30T02:07:57.372Z,71.29
2018-07-30T02:09:02.258Z,70.96
2018-07-30T02:10:07.912Z,71.07
2018-07-30T02:11:13.410Z,70.35
2018-07-30T02:12:18.400Z,70.43
2018-07-30T02:13:23.582Z,70.51
2018-07-30T02:14:28.513Z,70.65
2018-07-30T02:15:33.331Z,70.58
2018-07-30T02:16:38.144Z,70.86
2018-07-30T02:17:42.900Z,71.11
2018-07-30T02:18:47.673Z,71.29
2018-07-30T02:19:52.828Z,70.93
2018-07-30T02:20:57.746Z,70.65
2018-07-30T02:22:03.504Z,71.85
2018-07-30T02:23:10.747Z,71.87
2018-07-30T02:24:15.669Z,71.74
2018-07-30T02:25:20.571Z,71.63
2018-07-30T02:26:25.779Z,72.36
2018-07-30T02:27:30.751Z,71.73
2018-07-30T02:28:35.679Z,71.94
2018-07-30T02:29:40.568Z,71.49
2018-07-30T02:30:45.536Z,71.31
2018-07-30T02:31:50.456Z,71.07
2018-07-30T02:32:55.672Z,71.38
2018-07-30T02:34:00.565Z,71.29
2018-07-30T02:35:05.922Z,70.64
2018-07-30T02:36:10.954Z,70.61
2018-07-30T02:37:17.474Z,71.36
2018-07-30T02:38:22.336Z,71.38
2018-07-30T02:39:28.819Z,71.94
2018-07-30T02:40:33.732Z,71.92
2018-07-30T02:41:38.544Z,71.78
2018-07-30T02:42:43.350Z,72.59
2018-07-30T02:43:49.237Z,72.79
2018-07-30T02:44:54.161Z,72.98
2018-07-30T02:46:00.400Z,73.09
2018-07-30T02:47:05.228Z,73.40
2018-07-30T02:48:10.367Z,73.34
2018-07-30T02:49:15.316Z,73.03
2018-07-30T02:50:20.239Z,73.65
2018-07-30T02:51:25.216Z,73.32
2018-07-30T02:52:30.393Z,72.97
2018-07-30T02:53:35.323Z,73.10
2018-07-30T02:54:40.198Z,73.11
2018-07-30T02:55:45.300Z,73.02
2018-07-30T02:56:51.828Z,72.99
2018-07-30T02:57:56.772Z,73.28
2018-07-30T02:59:01.992Z,73.00
2018-07-30T03:00:07.323Z,72.99
2018-07-30T03:01:12.223Z,73.50
2018-07-30T03:02:17.184Z,73.70
2018-07-30T03:03:22.077Z,74.08
2018-07-30T03:04:26.901Z,74.25
2018-07-30T03:05:31.971Z,74.33
2018-07-30T03:06:37.656Z,74.88
2018-07-30T03:07:42.677Z,75.67
2018-07-30T03:08:47.404Z,75.10
2018-07-30T03:09:52.228Z,75.47
2018-07-30T03:10:57.028Z,75.86
2018-07-30T03:12:02.204Z,75.30
2018-07-30T03:13:06.985Z,75.00
2018-07-30T03:14:11.713Z,75.57
2018-07-30T03:15:17.019Z,74.87
2018-07-30T03:16:21.830Z,74.85
2018-07-30T03:17:26.610Z,74.56
2018-07-30T03:18:31.684Z,74.56
2018-07-30T03:19:36.425Z,74.98
2018-07-30T03:20:41.185Z,74.61
2018-07-30T03:21:45.990Z,74.91
2018-07-30T03:22:50.777Z,75.05
2018-07-30T03:23:55.587Z,74.69
2018-07-30T03:25:00.712Z,74.63
2018-07-30T03:26:05.521Z,74.40
2018-07-30T03:27:10.276Z,74.15
2018-07-30T03:28:15.891Z,74.78
2018-07-30T03:29:20.666Z,74.95
2018-07-30T03:30:25.426Z,74.34
2018-07-30T03:31:30.480Z,73.84
2018-07-30T03:32:35.231Z,73.90
2018-07-30T03:33:40.025Z,73.68
2018-07-30T03:34:44.828Z,73.65
2018-07-30T03:50:16.725Z,74.92
2018-07-30T03:51:21.456Z,75.25
2018-07-30T03:52:26.206Z,74.72
2018-07-30T03:53:31.102Z,74.28
2018-07-30T03:54:35.875Z,74.36
2018-07-30T03:55:40.960Z,74.12
2018-07-30T03:56:45.764Z,74.45
2018-07-30T03:57:50.496Z,73.92
2018-07-30T03:58:55.271Z,74.05
2018-07-30T04:00:00.033Z,74.65
2018-07-30T04:01:04.853Z,74.57
2018-07-30T04:02:10.804Z,74.64
2018-07-30T04:03:16.563Z,75.17
2018-07-30T04:04:21.316Z,75.77
2018-07-30T04:05:26.053Z,76.16
2018-07-30T04:06:30.782Z,76.34
2018-07-30T04:07:35.600Z,76.53
2018-07-30T04:08:40.699Z,76.74
2018-07-30T04:09:46.227Z,76.93
2018-07-30T04:10:53.953Z,76.61
2018-07-30T04:11:58.804Z,76.72
2018-07-30T04:13:03.585Z,76.41
2018-07-30T04:14:09.144Z,76.03
2018-07-30T04:15:14.271Z,76.36
2018-07-30T04:16:18.998Z,76.04
2018-07-30T04:17:23.762Z,76.17
2018-07-30T04:18:28.537Z,75.46
2018-07-30T04:19:33.296Z,75.56
2018-07-30T04:20:38.016Z,75.16
2018-07-30T04:21:43.060Z,75.35
2018-07-30T04:22:47.821Z,75.51
2018-07-30T04:23:52.524Z,75.66
2018-07-30T04:24:58.671Z,75.49
2018-07-30T04:26:04.009Z,74.39
2018-07-30T04:27:09.289Z,75.05
2018-07-30T04:28:14.697Z,74.79
2018-07-30T04:29:20.476Z,74.70
2018-07-30T04:30:25.269Z,74.98
2018-07-30T04:31:30.061Z,74.63
2018-07-30T04:32:34.955Z,73.94
2018-07-30T04:33:42.784Z,74.57
2018-07-30T04:34:47.868Z,73.84
2018-07-30T04:35:52.673Z,74.34
2018-07-30T04:36:57.546Z,74.30
2018-07-30T04:38:02.360Z,74.01
2018-07-30T04:39:08.808Z,73.98
2018-07-30T04:40:15.015Z,74.71
2018-07-30T04:41:20.432Z,74.17
2018-07-30T04:42:25.173Z,74.48
2018-07-30T04:43:30.328Z,75.00
2018-07-30T04:44:35.898Z,74.81
2018-07-30T04:45:40.736Z,74.82
2018-07-30T04:46:45.795Z,74.67
2018-07-30T04:47:50.671Z,74.52
2018-07-30T04:48:55.432Z,73.87
2018-07-30T04:50:00.255Z,74.30
2018-07-30T04:51:05.041Z,74.72
2018-07-30T04:52:09.831Z,74.59
2018-07-30T04:53:15.181Z,74.24
2018-07-30T04:54:20.071Z,74.98
2018-07-30T04:55:25.856Z,74.26
2018-07-30T04:56:30.710Z,74.59
2018-07-30T04:57:35.464Z,74.41
2018-07-30T04:58:40.214Z,74.35
2018-07-30T04:59:45.500Z,74.71
2018-07-30T05:00:50.264Z,74.74
2018-07-30T05:01:55.076Z,74.36
2018-07-30T05:03:00.492Z,75.01
2018-07-30T05:04:05.216Z,74.30
2018-07-30T05:05:09.975Z,73.82
2018-07-30T05:06:15.123Z,74.22
2018-07-30T05:07:19.953Z,73.92
2018-07-30T05:08:24.771Z,74.26
2018-07-30T05:09:29.516Z,74.19
2018-07-30T05:10:34.314Z,74.01
2018-07-30T05:11:39.115Z,74.33
2018-07-30T05:12:44.328Z,73.72
2018-07-30T05:13:49.236Z,74.28
2018-07-30T05:14:54.022Z,73.93
2018-07-30T05:15:58.858Z,73.93
2018-07-30T05:17:03.737Z,73.49
2018-07-30T05:18:08.643Z,74.52
2018-07-30T05:19:13.931Z,73.70
2018-07-30T05:20:18.833Z,73.32
2018-07-30T05:22:46.619Z,74.14
2018-07-30T05:23:57.901Z,74.15
2018-07-30T05:25:06.629Z,74.37
2018-07-30T05:26:15.445Z,73.29
2018-07-30T05:30:12.150Z,74.37
2018-07-30T05:31:17.423Z,74.19
2018-07-30T05:32:22.307Z,74.10
2018-07-30T05:33:27.093Z,74.56
2018-07-30T05:34:31.926Z,74.17
2018-07-30T05:35:36.688Z,73.78
2018-07-30T05:36:41.417Z,73.37
2018-07-30T05:37:46.655Z,73.70
2018-07-30T05:38:51.375Z,74.12
2018-07-30T05:39:56.133Z,73.57
2018-07-30T05:41:00.921Z,73.13
2018-07-30T05:42:05.708Z,72.93
2018-07-30T05:43:10.488Z,73.30
2018-07-30T05:44:15.671Z,73.34
2018-07-30T05:45:20.408Z,72.75
2018-07-30T05:46:25.348Z,73.42
2018-07-30T05:47:30.112Z,73.17
2018-07-30T05:48:34.871Z,73.33
2018-07-30T05:49:39.673Z,72.88
2018-07-30T05:50:44.897Z,73.74
2018-07-30T05:51:49.649Z,72.65
2018-07-30T05:52:54.812Z,73.03
2018-07-30T05:53:59.544Z,72.59
2018-07-30T05:55:04.323Z,72.97
2018-07-30T05:56:09.960Z,72.14
2018-07-30T05:57:15.864Z,72.06
2018-07-30T05:58:21.345Z,72.14
2018-07-30T05:59:26.105Z,72.56
2018-07-30T06:00:31.479Z,72.18
2018-07-30T06:01:36.551Z,71.58
2018-07-30T06:02:41.327Z,71.24
2018-07-30T06:03:46.407Z,72.30
2018-07-30T06:04:51.154Z,71.29
2018-07-30T06:05:56.850Z,71.75
2018-07-30T06:07:03.100Z,70.82
2018-07-30T06:08:09.982Z,71.03
2018-07-30T06:09:15.407Z,71.34
2018-07-30T06:10:20.674Z,70.75
2018-07-30T06:11:25.449Z,71.59
2018-07-30T06:12:30.208Z,70.98
2018-07-30T06:13:35.028Z,70.95
2018-07-30T06:14:40.373Z,69.94
2018-07-30T06:15:45.193Z,70.36
2018-07-30T06:16:51.340Z,70.12
2018-07-30T06:17:56.992Z,69.42
2018-07-30T06:19:02.665Z,70.22
2018-07-30T06:20:09.972Z,69.36
2018-07-30T06:21:18.941Z,69.25
2018-07-30T06:22:24.624Z,69.43
2018-07-30T06:23:36.207Z,69.64
2018-07-30T06:24:48.701Z,68.87
2018-07-30T06:25:55.508Z,69.11
2018-07-30T06:27:00.397Z,68.80
2018-07-30T06:28:05.140Z,68.81
2018-07-30T06:29:10.863Z,67.94
2018-07-30T06:30:15.777Z,68.07
2018-07-30T06:31:20.606Z,67.70
2018-07-30T06:32:27.318Z,67.66
2018-07-30T06:33:33.810Z,67.30
2018-07-30T06:34:38.809Z,67.66
2018-07-30T06:35:44.084Z,67.21
2018-07-30T06:36:49.002Z,67.29
2018-07-30T06:37:53.707Z,66.75
2018-07-30T06:38:58.963Z,66.79
2018-07-30T06:40:04.803Z,66.13
2018-07-30T06:41:09.599Z,66.15
2018-07-30T06:42:14.821Z,66.40
2018-07-30T06:43:19.702Z,66.15
2018-07-30T06:44:29.538Z,65.11
2018-07-30T06:45:35.348Z,66.08
2018-07-30T06:46:40.786Z,65.70
2018-07-30T06:47:45.704Z,65.60
2018-07-30T06:48:51.530Z,65.18
2018-07-30T06:49:56.359Z,65.22
2018-07-30T06:51:01.165Z,64.86
2018-07-30T06:52:06.819Z,64.57
2018-07-30T06:53:11.628Z,64.76
2018-07-30T06:54:17.560Z,64.44
2018-07-30T06:55:25.745Z,63.67
2018-07-30T06:56:30.561Z,63.61
2018-07-30T06:57:35.322Z,63.34
2018-07-30T06:58:40.172Z,63.37
2018-07-30T06:59:45.944Z,62.33
2018-07-30T07:00:50.770Z,62.75
2018-07-30T07:01:57.302Z,61.45
2018-07-30T07:03:02.122Z,61.82
2018-07-30T07:04:07.011Z,61.49
2018-07-30T07:05:12.703Z,61.53
2018-07-30T07:06:19.682Z,61.78
2018-07-30T07:07:24.478Z,61.09
2018-07-30T07:08:29.650Z,61.48
2018-07-30T07:09:35.566Z,60.54
2018-07-30T07:10:42.324Z,60.29
2018-07-30T07:11:48.367Z,61.01
2018-07-30T07:12:53.065Z,100.00
2018-07-30T07:13:58.991Z,100.00
2018-07-30T07:15:05.134Z,59.96
2018-07-30T07:16:10.447Z,58.25
2018-07-30T07:17:15.344Z,58.02
2018-07-30T07:18:20.292Z,57.72
2018-07-30T07:19:26.973Z,57.67
2018-07-30T07:20:32.609Z,57.35
2018-07-30T07:21:39.403Z,56.91
2018-07-30T07:22:44.372Z,56.68
2018-07-30T07:23:52.770Z,100.00
2018-07-30T07:24:58.751Z,56.38
2018-07-30T07:26:05.411Z,56.79
2018-07-30T07:27:10.291Z,56.37
2018-07-30T07:28:16.479Z,56.33
2018-07-30T07:29:21.201Z,56.00
2018-07-30T07:30:29.559Z,56.33
2018-07-30T07:31:35.265Z,55.31
2018-07-30T07:32:41.070Z,55.61
2018-07-30T07:33:47.035Z,54.91
2018-07-30T07:34:53.220Z,54.60
2018-07-30T07:35:58.160Z,53.69
2018-07-30T07:37:03.118Z,53.73
2018-07-30T07:38:08.018Z,53.81
2018-07-30T07:39:15.503Z,53.95
2018-07-30T07:40:22.944Z,53.35
2018-07-30T07:41:27.911Z,52.95
2018-07-30T07:42:34.181Z,52.55
2018-07-30T07:43:41.042Z,51.83
2018-07-30T07:44:47.509Z,52.46
2018-07-30T07:45:52.838Z,51.46
2018-07-30T07:47:00.465Z,50.00
2018-07-30T07:48:07.843Z,48.61
2018-07-30T07:49:16.384Z,100.00
2018-07-30T07:50:22.669Z,49.67
2018-07-30T07:51:48.691Z,48.38
2018-07-30T07:53:58.659Z,48.02
2018-07-30T07:55:05.686Z,48.51
2018-07-30T07:56:21.750Z,48.40
2018-07-30T07:57:28.177Z,48.13
2018-07-30T07:58:36.137Z,48.07
2018-07-30T07:59:43.080Z,47.78
2018-07-30T08:00:52.883Z,47.42
2018-07-30T08:01:59.089Z,47.85
2018-07-30T08:03:04.500Z,47.61
2018-07-30T08:04:10.634Z,47.48
2018-07-30T08:05:16.202Z,47.64
2018-07-30T08:06:22.287Z,47.39
2018-07-30T08:07:29.572Z,47.67
2018-07-30T08:08:36.314Z,46.81
2018-07-30T08:09:42.213Z,47.23
2018-07-30T08:10:48.172Z,46.34
2018-07-30T08:11:53.861Z,47.14
2018-07-30T08:13:04.109Z,0.00
2018-07-30T08:14:09.540Z,45.64
2018-07-30T08:15:14.785Z,45.88
2018-07-30T08:16:21.768Z,100.00
2018-07-30T08:17:26.727Z,44.64
2018-07-30T08:18:31.704Z,44.64
2018-07-30T08:19:37.699Z,44.36
2018-07-30T08:20:42.696Z,44.91
2018-07-30T08:21:47.761Z,44.29
2018-07-30T08:22:53.726Z,44.17
2018-07-30T08:23:58.784Z,44.31
2018-07-30T08:25:03.708Z,43.91
2018-07-30T08:26:10.027Z,43.57
2018-07-30T08:27:15.017Z,43.59
2018-07-30T08:28:19.929Z,44.14
2018-07-30T08:29:31.243Z,44.52
2018-07-30T08:30:36.414Z,43.36
2018-07-30T08:31:41.343Z,43.94
2018-07-30T08:32:47.256Z,44.17
2018-07-30T08:33:52.267Z,43.57
2018-07-30T08:35:05.898Z,43.48
2018-07-30T08:36:11.675Z,42.74
2018-07-30T08:37:19.136Z,42.43
2018-07-30T08:38:25.224Z,42.46
2018-07-30T08:39:33.107Z,42.14
2018-07-30T08:40:38.719Z,41.67
2018-07-30T08:41:44.642Z,41.96
2018-07-30T08:42:49.595Z,42.52
2018-07-30T08:43:54.463Z,41.95
2018-07-30T08:44:59.976Z,42.25
2018-07-30T08:46:05.267Z,42.45
2018-07-30T08:47:10.144Z,42.51
2018-07-30T08:48:15.103Z,41.77
2018-07-30T08:49:20.071Z,40.99
2018-07-30T08:50:26.680Z,40.26
2018-07-30T08:51:31.573Z,40.58
2018-07-30T08:52:36.676Z,40.68
2018-07-30T08:53:41.547Z,40.28
2018-07-30T08:54:46.499Z,40.47
2018-07-30T08:55:51.376Z,40.18
2018-07-30T08:56:57.388Z,39.92
2018-07-30T08:58:04.971Z,40.21
2018-07-30T08:59:10.388Z,40.14
2018-07-30T09:00:15.308Z,39.31
2018-07-30T09:01:21.314Z,39.62
2018-07-30T09:02:26.108Z,40.12
2018-07-30T09:03:30.989Z,39.63
2018-07-30T09:04:36.368Z,39.94
2018-07-30T09:05:42.676Z,39.46
2018-07-30T09:06:47.601Z,39.31
2018-07-30T09:07:52.800Z,39.08
2018-07-30T09:08:57.714Z,39.13
2018-07-30T09:10:02.933Z,39.84
2018-07-30T09:11:08.731Z,39.07
2018-07-30T09:12:13.459Z,39.51
2018-07-30T09:13:18.258Z,39.59
2018-07-30T09:14:24.244Z,39.88
2018-07-30T09:15:32.966Z,40.93
2018-07-30T09:16:39.256Z,40.73
2018-07-30T09:17:49.254Z,40.35
2018-07-30T09:18:55.016Z,40.29
2018-07-30T09:19:59.841Z,40.46
2018-07-30T09:21:04.657Z,40.04
2018-07-30T09:22:09.541Z,40.48
2018-07-30T09:23:14.699Z,40.15
2018-07-30T09:24:20.093Z,39.87
2018-07-30T09:25:25.301Z,39.91
2018-07-30T09:26:30.342Z,39.88
2018-07-30T09:27:36.392Z,39.48
2018-07-30T09:28:42.308Z,39.32
2018-07-30T09:29:47.059Z,39.31
2018-07-30T09:30:53.019Z,39.61
2018-07-30T09:31:57.813Z,39.63
2018-07-30T09:33:02.724Z,39.70
2018-07-30T09:34:07.499Z,39.33
2018-07-30T09:35:14.161Z,39.01
2018-07-30T09:36:22.755Z,39.10
2018-07-30T09:37:28.055Z,39.41
2018-07-30T09:38:33.817Z,39.97
2018-07-30T09:39:38.590Z,39.65
2018-07-30T09:40:43.406Z,39.89
2018-07-30T09:41:48.228Z,39.18
2018-07-30T09:42:53.874Z,39.37
2018-07-30T09:44:00.691Z,39.01
2018-07-30T09:45:08.633Z,38.43
2018-07-30T09:46:13.585Z,38.26
2018-07-30T09:47:19.660Z,38.86
2018-07-30T09:48:28.466Z,37.22
2018-07-30T10:05:48.603Z,36.86
2018-07-30T10:06:54.442Z,36.87
2018-07-30T10:08:00.642Z,36.62
2018-07-30T10:09:08.592Z,37.03
2018-07-30T10:10:13.821Z,36.04
2018-07-30T10:11:18.618Z,36.78
2018-07-30T10:12:24.586Z,36.07
2018-07-30T10:13:29.602Z,35.82
2018-07-30T10:14:36.003Z,36.83
2018-07-30T10:15:40.828Z,37.09
2018-07-30T10:16:46.710Z,37.04
2018-07-30T10:17:52.776Z,36.34
2018-07-30T10:18:58.905Z,36.26
2018-07-30T10:20:04.198Z,36.58
2018-07-30T10:21:09.980Z,35.92
2018-07-30T10:22:14.921Z,36.65
2018-07-30T10:23:21.434Z,36.37
2018-07-30T10:24:26.266Z,36.75
2018-07-30T10:25:32.711Z,36.19
2018-07-30T10:26:37.591Z,36.78
2018-07-30T10:27:42.440Z,37.70
2018-07-30T10:28:47.238Z,36.81
2018-07-30T10:29:53.022Z,36.45
2018-07-30T10:30:57.825Z,36.96
2018-07-30T10:32:03.603Z,37.41
2018-07-30T10:33:09.629Z,37.64
2018-07-30T10:34:14.763Z,37.40
2018-07-30T10:36:42.014Z,36.82
2018-07-30T10:37:47.437Z,37.21
2018-07-30T10:38:52.217Z,36.46
2018-07-30T10:39:59.452Z,36.86
2018-07-30T10:41:04.346Z,37.14
2018-07-30T10:42:12.780Z,37.05
2018-07-30T10:43:18.336Z,36.81
2018-07-30T10:44:24.656Z,36.53
2018-07-30T10:46:43.442Z,36.85
2018-07-30T10:47:48.956Z,37.44
2018-07-30T10:48:55.245Z,37.59
2018-07-30T10:50:00.168Z,37.08
2018-07-30T10:51:06.070Z,37.05
2018-07-30T10:52:11.037Z,37.76
2018-07-30T10:53:16.247Z,37.91
2018-07-30T10:54:22.341Z,37.18
2018-07-30T10:55:32.792Z,37.57
2018-07-30T10:56:39.551Z,37.55
2018-07-30T10:57:44.332Z,37.35
2018-07-30T10:58:53.220Z,36.99
2018-07-30T11:00:02.424Z,37.66
2018-07-30T11:01:08.438Z,37.52
2018-07-30T11:02:14.897Z,37.52
2018-07-30T11:03:22.388Z,38.18
2018-07-30T11:04:29.559Z,37.70
2018-07-30T11:05:36.886Z,37.98
2018-07-30T11:06:43.535Z,37.86
2018-07-30T11:08:07.126Z,37.39
2018-07-30T11:09:15.945Z,38.02
2018-07-30T11:10:24.225Z,37.69
2018-07-30T11:11:30.328Z,37.65
2018-07-30T11:12:36.448Z,36.06
2018-07-30T11:13:45.638Z,35.83
2018-07-30T11:14:51.155Z,36.77
2018-07-30T11:17:07.597Z,35.08
2018-07-30T11:18:12.542Z,35.79
2018-07-30T11:19:20.658Z,35.65
2018-07-30T11:20:25.914Z,34.13
2018-07-30T11:21:31.285Z,33.79
2018-07-30T11:22:36.188Z,33.21
2018-07-30T11:23:41.096Z,33.40
2018-07-30T11:24:45.963Z,33.60
2018-07-30T11:25:51.364Z,33.61
2018-07-30T11:26:57.729Z,33.75
2018-07-30T11:28:04.821Z,35.16
2018-07-30T11:29:10.412Z,34.08
2018-07-30T11:30:15.289Z,34.35
2018-07-30T11:31:20.433Z,34.75
2018-07-30T11:32:25.682Z,33.52
2018-07-30T11:33:31.440Z,34.32
2018-07-30T11:34:36.353Z,35.00
2018-07-30T11:35:42.030Z,34.65
2018-07-30T11:36:47.128Z,34.90
2018-07-30T11:37:53.058Z,34.96
2018-07-30T11:38:58.453Z,35.43
2018-07-30T11:40:05.417Z,34.62
2018-07-30T11:41:10.292Z,34.47
2018-07-30T11:42:15.345Z,34.67
2018-07-30T11:43:20.241Z,35.07
2018-07-30T11:44:25.997Z,34.44
2018-07-30T11:45:31.414Z,34.99
2018-07-30T11:46:36.313Z,34.99
2018-07-30T11:47:41.287Z,34.57
2018-07-30T11:48:47.799Z,35.33
2018-07-30T11:49:52.822Z,35.04
2018-07-30T11:50:59.437Z,34.99
2018-07-30T11:52:08.626Z,34.97
2018-07-30T11:53:14.438Z,34.09
2018-07-30T11:54:25.963Z,33.49
2018-07-30T11:55:34.603Z,33.56
2018-07-30T11:56:41.376Z,33.76
2018-07-30T11:57:47.763Z,32.92
2018-07-30T11:58:54.012Z,32.98
2018-07-30T11:59:58.940Z,33.53
2018-07-30T12:01:04.796Z,33.61
2018-07-30T12:02:14.105Z,33.98
2018-07-30T12:03:20.002Z,34.44
2018-07-30T12:04:31.345Z,35.38
2018-07-30T12:05:38.398Z,35.28
2018-07-30T12:06:44.941Z,34.68
2018-07-30T12:07:52.977Z,35.44
2018-07-30T12:09:00.347Z,33.93
2018-07-30T12:10:05.270Z,34.54
2018-07-30T12:11:12.881Z,33.73
2018-07-30T12:12:18.604Z,34.04
2018-07-30T12:13:24.459Z,33.93
2018-07-30T12:14:29.323Z,33.60
2018-07-30T12:15:34.574Z,32.38
2018-07-30T12:16:39.367Z,33.09
2018-07-30T12:17:45.360Z,33.91
2018-07-30T12:19:00.187Z,33.05
2018-07-30T12:20:05.903Z,32.49
2018-07-30T12:21:11.159Z,32.21
2018-07-30T12:22:16.301Z,31.48
2018-07-30T12:23:21.351Z,30.97
2018-07-30T12:24:27.709Z,30.08
2018-07-30T12:25:33.488Z,29.66
2018-07-30T12:26:38.726Z,29.46
2018-07-30T12:27:46.835Z,30.31
2018-07-30T12:28:51.678Z,30.75
2018-07-30T12:29:56.626Z,30.88
2018-07-30T12:31:02.560Z,31.55
2018-07-30T12:32:07.384Z,32.46
2018-07-30T12:33:12.432Z,32.00
2018-07-30T12:34:17.739Z,33.41
2018-07-30T12:35:23.578Z,33.72
2018-07-30T12:36:29.382Z,33.89
2018-07-30T12:37:35.112Z,33.92
2018-07-30T12:38:41.072Z,34.52
2018-07-30T12:39:47.016Z,34.67
2018-07-30T12:40:52.031Z,35.14
2018-07-30T12:41:57.868Z,35.48
2018-07-30T12:43:03.400Z,35.09
2018-07-30T12:44:08.526Z,35.22
2018-07-30T12:45:13.311Z,34.87
2018-07-30T12:46:20.100Z,35.33
2018-07-30T12:47:27.759Z,34.44
2018-07-30T12:48:33.631Z,34.20
2018-07-30T12:49:39.145Z,34.68
2018-07-30T12:50:44.293Z,34.69
2018-07-30T12:51:49.208Z,35.22
2018-07-30T12:52:54.526Z,34.34
2018-07-30T12:53:59.386Z,35.18
2018-07-30T12:55:08.512Z,34.01
2018-07-30T12:56:14.538Z,35.34
2018-07-30T12:57:19.979Z,35.23
2018-07-30T12:58:25.140Z,34.84
2018-07-30T12:59:33.175Z,34.51
2018-07-30T13:00:38.324Z,35.66
2018-07-30T13:01:43.604Z,34.30
2018-07-30T13:02:49.732Z,35.41
2018-07-30T13:03:56.531Z,35.33
2018-07-30T13:05:01.351Z,35.69
2018-07-30T13:06:07.566Z,35.55
2018-07-30T13:07:12.415Z,34.22
2018-07-30T13:08:18.132Z,34.40
2018-07-30T13:09:24.052Z,34.81
2018-07-30T13:10:29.131Z,33.97
2018-07-30T13:11:34.530Z,33.93
2018-07-30T13:12:39.323Z,34.88
2018-07-30T13:13:44.991Z,34.66
2018-07-30T13:14:50.678Z,34.24
2018-07-30T13:15:55.435Z,34.44
2018-07-30T13:17:01.416Z,35.65
2018-07-30T13:18:06.207Z,35.82
2018-07-30T13:19:11.251Z,35.70
2018-07-30T13:20:16.331Z,34.83
2018-07-30T13:21:21.212Z,34.24
2018-07-30T13:22:27.092Z,34.66
2018-07-30T13:23:32.225Z,34.38
2018-07-30T13:24:37.220Z,33.58
2018-07-30T13:25:42.288Z,34.61
2018-07-30T13:26:47.796Z,33.79
2018-07-30T13:27:52.599Z,34.58
2018-07-30T13:29:01.509Z,33.61
2018-07-30T13:30:09.010Z,32.64
2018-07-30T13:32:26.223Z,31.06
2018-07-30T13:33:31.047Z,31.33
2018-07-30T13:34:35.884Z,30.78
2018-07-30T13:35:41.192Z,30.31
2018-07-30T13:36:46.598Z,30.82
2018-07-30T13:37:51.628Z,31.05
2018-07-30T13:38:56.407Z,31.98
2018-07-30T13:40:01.175Z,31.10
2018-07-30T13:41:06.870Z,31.86
2018-07-30T13:42:11.866Z,32.71
2018-07-30T13:43:19.344Z,33.00
2018-07-30T13:44:25.709Z,32.37
2018-07-30T13:45:32.682Z,32.03
2018-07-30T13:46:38.607Z,31.26
2018-07-30T13:47:43.389Z,31.73
2018-07-30T13:48:48.249Z,32.48
2018-07-30T13:49:54.909Z,33.13
2018-07-30T13:51:02.508Z,34.42
2018-07-30T13:52:09.683Z,34.42
2018-07-30T13:53:15.009Z,33.66
2018-07-30T13:54:22.518Z,34.46
2018-07-30T13:55:27.528Z,33.13
2018-07-30T13:56:32.343Z,34.05
2018-07-30T13:57:38.398Z,33.87
2018-07-30T13:58:44.308Z,33.86
2018-07-30T13:59:49.770Z,33.11
2018-07-30T14:00:56.975Z,33.44
2018-07-30T14:02:03.079Z,34.56
2018-07-30T14:03:09.443Z,34.87
2018-07-30T14:04:15.938Z,35.19
2018-07-30T14:05:20.714Z,34.63
2018-07-30T14:06:26.021Z,34.61
2018-07-30T14:07:32.364Z,34.27
2018-07-30T14:08:37.141Z,34.50
2018-07-30T14:09:41.984Z,33.76
2018-07-30T14:10:46.774Z,34.53
2018-07-30T14:11:51.861Z,34.76
2018-07-30T14:12:57.112Z,34.93
2018-07-30T14:14:02.764Z,33.72
2018-07-30T14:15:08.216Z,32.91
2018-07-30T14:16:13.001Z,34.08
2018-07-30T14:17:22.126Z,34.11
2018-07-30T14:18:28.821Z,34.32
2018-07-30T14:19:37.579Z,33.35
2018-07-30T14:20:42.744Z,33.15
2018-07-30T14:21:47.848Z,33.40
2018-07-30T14:22:53.124Z,33.57
2018-07-30T14:23:57.935Z,34.11
2018-07-30T14:25:03.565Z,33.49
2018-07-30T14:26:08.682Z,34.14
2018-07-30T14:27:13.471Z,34.22
2018-07-30T14:28:18.262Z,33.70
2018-07-30T14:29:23.697Z,33.71
2018-07-30T14:30:28.465Z,34.37
2018-07-30T14:31:33.413Z,33.85
2018-07-30T14:51:20.989Z,33.37
2018-07-30T14:52:26.631Z,33.04
2018-07-30T14:53:31.430Z,33.77
2018-07-30T14:54:36.289Z,34.23
2018-07-30T14:55:42.096Z,33.73
2018-07-30T14:56:47.466Z,34.43
2018-07-30T14:57:52.261Z,33.68
2018-07-30T14:58:57.399Z,33.15
2018-07-30T15:00:02.151Z,34.26
2018-07-30T15:01:07.775Z,33.68
2018-07-30T15:02:12.725Z,34.64
2018-07-30T15:03:17.860Z,33.70
2018-07-30T15:04:22.665Z,34.56
2018-07-30T15:05:27.479Z,34.02